M I D A S
Marine Information and Data Acquisition System
Tripno 1879 of the Zeeleeuw from 2010-05-11 05:12:52 to 2010-05-11 15:59:13
Back to CruiseResearch ActivitiesStationsMapUnderway DataData graphs

EquipmentUnitsComment
TimeDGPSUTC
LatitudeDGPSDM.mWGS84
LongitudeDGPSDM.mWGS84
HeadingGyrodeg 
SOGDGPSknotsSpeed over ground
COGDGPSdegCourse over ground
DepthEcho soundermeters200 kHz
Missing or incorrect values are displayed as -999
Navigation data collected by the RV Zeeleeuw from 2010-05-11 04:58:16 to 2010-05-11 16:06:18
Time Latitude Longitude Heading SOG COG Depth
2010-05-11 04:59:24 51°13.682 2°55.88 110.4 4.3 290 -999
2010-05-11 05:00:24 51°13.699 2°55.779 94.7 3.3 278 -999
2010-05-11 05:01:24 51°13.701 2°55.755 62.3 0.4 -999 10.9
2010-05-11 05:03:20 51°13.713 2°55.738 352.5 2.2 343 10.9
2010-05-11 05:04:36 51°13.835 2°55.632 335.4 9.2 334 9.8
2010-05-11 05:05:35 51°13.983 2°55.537 337.1 10 334 9.7
2010-05-11 05:06:36 51°14.132 2°55.415 334.5 9.9 331 9.6
2010-05-11 05:07:36 51°14.278 2°55.298 338.3 9.8 335 9.4
2010-05-11 05:08:36 51°14.421 2°55.161 325.4 10.6 320 9.9
2010-05-11 05:09:35 51°14.556 2°54.946 314.9 12.7 308 9.7
2010-05-11 05:10:35 51°14.713 2°54.717 334.6 12.7 328 8.6
2010-05-11 05:11:36 51°14.906 2°54.554 338.3 13.1 331 9.7
2010-05-11 05:12:35 51°15.084 2°54.381 332.8 12.9 323 8.8
2010-05-11 05:13:34 51°15.257 2°54.184 331 13.2 321 9
2010-05-11 05:14:36 51°15.424 2°53.937 325.4 13.3 317 9.8
2010-05-11 05:15:35 51°15.583 2°53.702 325.2 13.3 317 9.7
2010-05-11 05:16:36 51°15.75 2°53.464 328.4 13.1 323 10.6
2010-05-11 05:17:36 51°15.94 2°53.314 345.6 12.6 339 10.4
2010-05-11 05:18:34 51°16.128 2°53.2 346.4 12.5 338 10.6
2010-05-11 05:19:36 51°16.328 2°53.069 347.2 12.4 339 10.9
2010-05-11 05:20:35 51°16.521 2°52.953 344.6 12.7 338 10.3
2010-05-11 05:21:35 51°16.716 2°52.831 344.4 12.6 339 9.7
2010-05-11 05:22:34 51°16.903 2°52.711 344 12.2 338 8.4
2010-05-11 05:23:34 51°17.094 2°52.587 345.1 12.3 338 8.6
2010-05-11 05:24:34 51°17.287 2°52.471 351.6 12.2 348 8.9
2010-05-11 05:25:34 51°17.487 2°52.445 3.7 12.1 358 9.2
2010-05-11 05:26:34 51°17.687 2°52.451 12 11.9 10 9.3
2010-05-11 05:27:34 51°17.881 2°52.52 17.1 11.9 13 8.9
2010-05-11 05:28:34 51°18.062 2°52.64 32.4 11.9 35 9.6
2010-05-11 05:29:34 51°18.206 2°52.854 47.9 11.9 50 9.8
2010-05-11 05:30:34 51°18.33 2°53.097 53.3 12 54 9.9
2010-05-11 05:31:34 51°18.434 2°53.364 57.6 11.8 58 9.8
2010-05-11 05:32:34 51°18.54 2°53.631 56.7 11.8 58 10.2
2010-05-11 05:33:34 51°18.648 2°53.896 55.9 11.9 56 9.7
2010-05-11 05:34:34 51°18.757 2°54.159 56 11.9 55 10.4
2010-05-11 05:35:34 51°18.867 2°54.422 55.7 11.9 57 10
2010-05-11 05:36:34 51°18.978 2°54.685 56 11.8 55 10.2
2010-05-11 05:37:34 51°19.089 2°54.947 57.1 11.9 58 10.8
2010-05-11 05:38:35 51°19.186 2°55.23 60.6 11.9 61 10.1
2010-05-11 05:39:34 51°19.269 2°55.513 66 11.9 68 10.2
2010-05-11 05:40:34 51°19.346 2°55.809 66.4 12.2 67 10.3
2010-05-11 05:41:34 51°19.424 2°56.104 66.2 12.1 66 10.2
2010-05-11 05:42:34 51°19.504 2°56.396 65.1 12 65 10.4
2010-05-11 05:43:34 51°19.584 2°56.688 65.4 11.9 67 10.1
2010-05-11 05:44:34 51°19.665 2°56.979 65.4 12.1 65 10.2
2010-05-11 05:45:34 51°19.744 2°57.27 65.5 11.9 66 9.8
2010-05-11 05:46:34 51°19.825 2°57.557 65.4 11.9 68 9.5
2010-05-11 05:47:34 51°19.906 2°57.846 65.3 12 66 9.7
2010-05-11 05:48:34 51°19.989 2°58.135 65.3 11.8 65 9.8
2010-05-11 05:49:34 51°20.068 2°58.423 65.1 11.9 67 10.1
2010-05-11 05:50:34 51°20.149 2°58.709 65.5 11.9 64 9.9
2010-05-11 05:51:34 51°20.229 2°58.996 65.1 11.8 67 9.6
2010-05-11 05:52:34 51°20.311 2°59.283 65.2 11.8 64 9.8
2010-05-11 05:53:36 51°20.395 2°59.58 65.1 11.8 66 9.4
2010-05-11 05:54:34 51°20.474 2°59.856 65.5 11.9 64 9.6
2010-05-11 05:55:34 51°20.555 3°0.142 65.1 11.8 65 9.3
2010-05-11 05:56:34 51°20.637 3°0.426 65.7 11.9 65 9.4
2010-05-11 05:57:34 51°20.719 3°0.711 65.9 11.8 67 9.4
2010-05-11 05:58:34 51°20.804 3°0.995 65.5 11.9 66 9.6
2010-05-11 05:59:34 51°20.888 3°1.283 64.7 11.9 65 9.3
2010-05-11 06:00:34 51°20.973 3°1.571 65 12.2 65 9.7
2010-05-11 06:01:34 51°21.06 3°1.86 64.9 12 64 9.9
2010-05-11 06:02:34 51°21.146 3°2.151 65.6 12.1 65 9.8
2010-05-11 06:03:34 51°21.234 3°2.442 65.1 12.1 64 10
2010-05-11 06:04:43 51°21.334 3°2.777 65.6 12.1 65 10.2
2010-05-11 06:05:43 51°21.421 3°3.066 66.4 12 70 10.3
2010-05-11 06:06:43 51°21.459 3°3.38 82.1 12.2 81 10.3
2010-05-11 06:07:43 51°21.486 3°3.698 81.1 11.9 83 10.6
2010-05-11 06:08:43 51°21.528 3°4.014 75 12.2 75 10.6
2010-05-11 06:09:43 51°21.577 3°4.325 75.6 12 76 10.5
2010-05-11 06:10:43 51°21.627 3°4.637 75.6 12.3 78 10.4
2010-05-11 06:11:43 51°21.678 3°4.947 74.8 12.1 72 10.6
2010-05-11 06:12:43 51°21.729 3°5.257 75.1 12 74 10.5
2010-05-11 06:13:43 51°21.779 3°5.565 74.7 11.7 74 10.5
2010-05-11 06:14:43 51°21.826 3°5.874 76.3 11.9 74 10.6
2010-05-11 06:15:42 51°21.875 3°6.177 75.7 12 74 10.5
2010-05-11 06:16:43 51°21.926 3°6.494 74.6 12.1 76 11.1
2010-05-11 06:17:43 51°21.975 3°6.807 75.8 12.1 76 11.1
2010-05-11 06:18:43 51°22.025 3°7.12 75.6 12.1 75 11.2
2010-05-11 06:19:43 51°22.077 3°7.434 74.8 12.3 77 11.3
2010-05-11 06:20:43 51°22.126 3°7.749 76 12.3 73 11.4
2010-05-11 06:21:43 51°22.176 3°8.055 75.6 10.4 75 11.5
2010-05-11 06:22:43 51°22.222 3°8.231 54.6 5.8 50 11.4
2010-05-11 06:23:43 51°22.318 3°8.383 46.8 10.4 43 11.9
2010-05-11 06:24:43 51°22.455 3°8.605 48.7 11.7 47 11.9
2010-05-11 06:25:43 51°22.556 3°8.848 67.5 11 69 12.2
2010-05-11 06:26:43 51°22.599 3°9.135 77 11.6 78 12.4
2010-05-11 06:27:43 51°22.606 3°9.458 92 12.5 95 12.8
2010-05-11 06:28:43 51°22.605 3°9.789 86.7 12.4 86 12.6
2010-05-11 06:29:43 51°22.631 3°10.116 80.8 12.6 76 17.4
2010-05-11 06:30:43 51°22.668 3°10.44 80.7 12.1 79 14.3
2010-05-11 06:31:43 51°22.7 3°10.746 82 10.6 78 14
2010-05-11 06:32:43 51°22.671 3°10.987 103.8 9.1 106 13.8
2010-05-11 06:33:43 51°22.633 3°11.174 104.5 5.6 109 14.4
2010-05-11 06:34:43 51°22.605 3°11.284 105.3 3.8 114 14.7
2010-05-11 06:35:43 51°22.579 3°11.365 105.8 2.4 127 14.8
2010-05-11 06:36:43 51°22.567 3°11.39 88.7 0.9 137 14.6
2010-05-11 06:37:43 51°22.558 3°11.399 87.2 0.5 167 14.8
2010-05-11 06:38:43 51°22.548 3°11.396 87.7 0.7 206 14.6
2010-05-11 06:39:43 51°22.536 3°11.385 87.6 0.8 224 15.1
2010-05-11 06:40:43 51°22.523 3°11.367 98.3 1.1 226 14.7
2010-05-11 06:41:43 51°22.509 3°11.342 114.8 1.3 229 14.9
2010-05-11 06:42:43 51°22.496 3°11.316 130.2 1.3 230 14.9
2010-05-11 06:43:43 51°22.483 3°11.29 139.4 1.3 230 15.2
2010-05-11 06:44:43 51°22.47 3°11.266 142.2 1.2 227 15.5
2010-05-11 06:45:43 51°22.437 3°11.301 114.9 4.6 118 15.1
2010-05-11 06:46:43 51°22.434 3°11.478 82.4 8.5 79 15
2010-05-11 06:47:43 51°22.49 3°11.741 69 12 67 14.7
2010-05-11 06:48:43 51°22.574 3°12.045 69.2 12.7 64 13.6
2010-05-11 06:49:42 51°22.652 3°12.347 69.4 12.6 66 12.7
2010-05-11 06:50:43 51°22.732 3°12.659 69.5 12.5 68 11.9
2010-05-11 06:51:43 51°22.829 3°12.95 56.7 12.6 51 11.4
2010-05-11 06:52:43 51°22.96 3°13.211 53.3 12.6 50 10.3
2010-05-11 06:53:43 51°23.096 3°13.461 48.2 12.5 46 10.2
2010-05-11 06:54:43 51°23.24 3°13.703 49.3 12.4 46 9.9
2010-05-11 06:55:43 51°23.388 3°13.934 44.8 12.3 42 9.6
2010-05-11 06:56:43 51°23.543 3°14.154 45 12.6 41 10.3
2010-05-11 06:57:43 51°23.697 3°14.379 45 12.6 42 10.9
2010-05-11 06:58:43 51°23.859 3°14.591 36.3 12.6 32 10.5
2010-05-11 06:59:43 51°24.02 3°14.72 28 8.8 25 10.8
2010-05-11 07:00:43 51°24.069 3°14.835 93.5 4.5 109 11
2010-05-11 07:01:43 51°24.014 3°14.884 172 4.1 184 11.1
2010-05-11 07:02:43 51°23.952 3°14.817 229.8 4.9 233 10.8
2010-05-11 07:03:42 51°23.916 3°14.706 257.5 4.4 252 11.3
2010-05-11 07:04:43 51°23.908 3°14.599 280.9 3.6 272 11.2
2010-05-11 07:06:20 51°23.91 3°14.447 282 3.5 273 11.2
2010-05-11 07:07:56 51°23.918 3°14.299 292.1 3.5 278 11.5
2010-05-11 07:08:56 51°23.923 3°14.211 282.2 3.3 271 11.5
2010-05-11 07:09:56 51°23.918 3°14.121 271.6 3.5 261 10.9
2010-05-11 07:10:56 51°23.906 3°14.029 266.6 3.6 257 11.5
2010-05-11 07:11:56 51°23.893 3°13.937 266.2 3.6 256 11.1
2010-05-11 07:12:56 51°23.881 3°13.846 270.5 3.5 258 11
2010-05-11 07:13:56 51°23.876 3°13.757 281 3.3 270 11.4
2010-05-11 07:14:56 51°23.881 3°13.673 292.8 3.1 283 11
2010-05-11 07:15:56 51°23.889 3°13.59 291.4 3.2 277 10.8
2010-05-11 07:16:56 51°23.896 3°13.507 291.5 3.2 278 11.3
2010-05-11 07:17:57 51°23.906 3°13.421 292.7 3.3 279 10.9
2010-05-11 07:18:56 51°23.913 3°13.337 290.5 3.1 275 11.4
2010-05-11 07:19:56 51°23.92 3°13.254 292.2 3.2 282 11.3
2010-05-11 07:20:56 51°23.928 3°13.164 289.4 3.6 278 11.9
2010-05-11 07:21:56 51°23.935 3°13.067 287.1 3.6 275 11.8
2010-05-11 07:22:56 51°23.943 3°12.97 290 3.6 276 12.3
2010-05-11 07:23:56 51°23.951 3°12.872 291 3.7 279 12.3
2010-05-11 07:24:56 51°23.958 3°12.775 289.1 3.7 278 12.3
2010-05-11 07:25:56 51°23.966 3°12.68 290.4 3.6 279 12.5
2010-05-11 07:26:56 51°23.974 3°12.584 290.8 3.6 279 11.8
2010-05-11 07:27:56 51°23.985 3°12.488 290.9 3.6 278 12.7
2010-05-11 07:28:56 51°23.989 3°12.389 280.4 3.9 273 13.2
2010-05-11 07:29:56 51°23.985 3°12.287 269.7 3.9 262 13.2
2010-05-11 07:30:56 51°23.972 3°12.184 265.7 4 258 13.5
2010-05-11 07:31:56 51°23.957 3°12.082 267.1 3.9 261 13.3
2010-05-11 07:32:56 51°23.946 3°11.979 268.9 3.9 260 13.3
2010-05-11 07:33:56 51°23.936 3°11.877 270.7 3.9 261 13.7
2010-05-11 07:34:56 51°23.927 3°11.776 270 3.8 261 13.7
2010-05-11 07:35:57 51°23.917 3°11.673 269.6 3.9 261 14.3
2010-05-11 07:36:56 51°23.908 3°11.574 270 3.9 263 14.3
2010-05-11 07:37:56 51°23.898 3°11.472 270.4 3.8 264 14.4
2010-05-11 07:38:56 51°23.889 3°11.371 269.3 3.9 260 14.8
2010-05-11 07:39:56 51°23.88 3°11.271 269.8 3.8 263 14.4
2010-05-11 07:40:56 51°23.869 3°11.17 264.3 3.8 255 14.6
2010-05-11 07:41:56 51°23.847 3°11.073 250.2 4 244 14.1
2010-05-11 07:42:56 51°23.81 3°10.986 232 4 228 14
2010-05-11 07:43:56 51°23.763 3°10.909 230.9 4 234 13.9
2010-05-11 07:44:56 51°23.73 3°10.818 247.7 3.9 245 13.4
2010-05-11 07:45:56 51°23.702 3°10.725 256.6 3.9 250 13.6
2010-05-11 07:46:56 51°23.689 3°10.627 270 3.7 261 13.7
2010-05-11 07:47:56 51°23.686 3°10.529 282.3 3.6 276 13.4
2010-05-11 07:48:56 51°23.693 3°10.428 292.2 3.6 280 14
2010-05-11 07:49:56 51°23.702 3°10.353 299.8 2.4 281 14
2010-05-11 07:50:56 51°23.705 3°10.301 304.9 1.6 274 13.8
2010-05-11 07:51:56 51°23.704 3°10.263 310.5 1.7 280 13.7
2010-05-11 07:52:56 51°23.699 3°10.18 258.7 5.1 249 13.9
2010-05-11 07:53:56 51°23.58 3°10.081 186.9 11.6 189 14
2010-05-11 07:54:56 51°23.361 3°10.085 168.3 13.6 168 13.4
2010-05-11 07:55:56 51°23.14 3°10.178 166.4 13.7 170 13.4
2010-05-11 07:56:56 51°22.925 3°10.292 149.6 13.4 152 13.5
2010-05-11 07:57:56 51°22.722 3°10.459 153.3 13.7 152 14.5
2010-05-11 07:58:56 51°22.529 3°10.636 150.3 13.7 153 15.8
2010-05-11 07:59:56 51°22.344 3°10.833 144.6 13.4 147 16.6
2010-05-11 08:00:56 51°22.162 3°11.034 148.3 13.4 148 17.4
2010-05-11 08:01:56 51°21.974 3°11.231 148 13.2 152 17.7
2010-05-11 08:02:56 51°21.78 3°11.425 149.5 14.3 147 16.9
2010-05-11 08:03:56 51°21.585 3°11.619 146.1 13.4 148 16.6
2010-05-11 08:04:56 51°21.421 3°11.801 147.7 11.2 149 16.5
2010-05-11 08:05:56 51°21.269 3°11.949 148.9 10.3 150 16.5
2010-05-11 08:06:56 51°21.12 3°12.082 151 10.2 153 16.6
2010-05-11 08:07:56 51°20.966 3°12.192 159 10.3 159 16.6
2010-05-11 08:09:12 51°20.782 3°12.198 216.3 9 215 16.5
2010-05-11 08:10:12 51°20.643 3°12.056 211.9 10.4 211 16.3
2010-05-11 08:11:12 51°20.492 3°11.913 208.3 10.6 206 16.4
2010-05-11 08:12:12 51°20.348 3°11.82 200.4 7.7 199 16.6
2010-05-11 08:13:12 51°20.248 3°11.776 193.8 5.2 193 16.9
2010-05-11 08:14:12 51°20.174 3°11.752 190.7 4.1 197 17.1
2010-05-11 08:15:12 51°20.116 3°11.727 196.8 3.2 199 17.2
2010-05-11 08:16:12 51°20.07 3°11.702 199.1 2.7 199 17.2
2010-05-11 08:17:12 51°20.053 3°11.691 197.4 0.1 302 17.2
2010-05-11 08:18:14 51°20.053 3°11.687 195 0.4 354 5.1
2010-05-11 08:19:16 51°20.071 3°11.692 198.7 1.3 11 -999
2010-05-11 08:20:14 51°20.087 3°11.696 201.2 0.7 4 17.3
2010-05-11 08:21:14 51°20.058 3°11.687 177.4 3.2 176 17.3
2010-05-11 08:22:12 51°20.02 3°11.713 126 0.7 216 17.3
2010-05-11 08:23:12 51°20.004 3°11.73 95.9 1.1 235 17.2
2010-05-11 08:24:15 51°19.997 3°11.728 75.9 2.3 87 -999
2010-05-11 08:25:16 51°19.98 3°11.713 56.3 3.2 229 -999
2010-05-11 08:26:16 51°19.972 3°11.703 39.8 1.3 39 4.6
2010-05-11 08:27:14 51°20.008 3°11.722 13.1 3.3 12 17.4
2010-05-11 08:28:13 51°20.07 3°11.74 15.8 4 13 17.3
2010-05-11 08:29:12 51°20.135 3°11.77 20.2 4.5 18 17.3
2010-05-11 08:30:12 51°20.223 3°11.816 18.2 7.4 16 17.2
2010-05-11 08:31:12 51°20.359 3°11.914 31.3 10.1 31 16.8
2010-05-11 08:32:12 51°20.517 3°12.065 32 11.9 29 16.5
2010-05-11 08:33:12 51°20.682 3°12.258 41.9 12.4 40 16.7
2010-05-11 08:34:12 51°20.857 3°12.422 23.7 12.4 19 16.9
2010-05-11 08:35:12 51°21.065 3°12.411 346.6 13.2 343 16.9
2010-05-11 08:36:12 51°21.256 3°12.233 326.5 13.4 324 17
2010-05-11 08:37:12 51°21.43 3°12.012 323.8 13.3 322 17.1
2010-05-11 08:38:12 51°21.604 3°11.792 324.4 13.5 321 17.5
2010-05-11 08:39:12 51°21.774 3°11.573 324.1 12.9 323 17.7
2010-05-11 08:40:12 51°21.945 3°11.381 319.5 12.6 318 18.2
2010-05-11 08:41:12 51°22.083 3°11.129 308 12.9 311 19
2010-05-11 08:42:12 51°22.249 3°10.908 320.8 12.9 324 17.5
2010-05-11 08:43:12 51°22.422 3°10.695 321.6 13.2 322 17.3
2010-05-11 08:44:12 51°22.591 3°10.477 320.3 13 321 15.9
2010-05-11 08:45:12 51°22.755 3°10.251 321.2 12.9 319 14.9
2010-05-11 08:46:12 51°22.914 3°10.016 318.1 13.1 317 15.1
2010-05-11 08:47:12 51°23.073 3°9.786 318.5 12.8 319 15.3
2010-05-11 08:48:12 51°23.23 3°9.56 318.7 12.8 319 15.6
2010-05-11 08:49:12 51°23.38 3°9.345 318.6 10.1 319 15.5
2010-05-11 08:50:12 51°23.506 3°9.25 351.2 8.1 356 16
2010-05-11 08:51:12 51°23.63 3°9.315 25.6 7.6 32 16
2010-05-11 08:52:12 51°23.741 3°9.419 25.3 8 28 16.8
2010-05-11 08:53:12 51°23.876 3°9.528 22.6 10.4 26 17.4
2010-05-11 08:54:12 51°24.063 3°9.62 353.7 12.4 349 19.1
2010-05-11 08:55:12 51°24.256 3°9.485 323 12.7 320 18.7
2010-05-11 08:56:12 51°24.391 3°9.232 307.1 12.3 306 14
2010-05-11 08:57:12 51°24.516 3°8.967 308.6 12.2 312 11.6
2010-05-11 08:58:12 51°24.641 3°8.709 310.4 12.5 309 11.1
2010-05-11 08:59:12 51°24.767 3°8.452 310.2 12.4 307 10.5
2010-05-11 09:00:12 51°24.897 3°8.195 313.6 12.2 310 9.5
2010-05-11 09:01:12 51°25.031 3°7.95 314.6 12.2 312 9.3
2010-05-11 09:02:12 51°25.196 3°7.767 341.7 12.4 344 9.7
2010-05-11 09:03:12 51°25.401 3°7.784 15.2 12.6 18 9.5
2010-05-11 09:04:12 51°25.589 3°7.95 31.7 13.1 32 9.9
2010-05-11 09:05:12 51°25.758 3°8.163 38.6 12.9 41 10
2010-05-11 09:06:12 51°25.915 3°8.405 44.4 13.3 48 10
2010-05-11 09:07:12 51°26.066 3°8.661 43 13.2 46 10.3
2010-05-11 09:08:12 51°26.205 3°8.93 57.5 13.4 63 10.3
2010-05-11 09:09:12 51°26.278 3°9.271 72.6 13.6 73 10.6
2010-05-11 09:10:12 51°26.338 3°9.621 70.7 13.6 73 10.3
2010-05-11 09:11:20 51°26.413 3°10.017 70.4 13.8 74 10.1
2010-05-11 09:12:20 51°26.483 3°10.364 69 13.6 72 10.3
2010-05-11 09:13:20 51°26.554 3°10.711 68.4 13.8 72 10.7
2010-05-11 09:14:20 51°26.627 3°11.056 68.8 13.8 70 10
2010-05-11 09:15:20 51°26.699 3°11.401 68.7 13.7 73 9.5
2010-05-11 09:16:20 51°26.771 3°11.748 68.5 13.8 71 9.4
2010-05-11 09:17:20 51°26.846 3°12.095 67.8 14 71 9.1
2010-05-11 09:18:20 51°26.921 3°12.443 68.7 13.5 70 9.2
2010-05-11 09:19:20 51°26.995 3°12.792 68.4 14.1 72 9.1
2010-05-11 09:20:20 51°27.069 3°13.141 67.5 13.4 71 9.2
2010-05-11 09:21:20 51°27.099 3°13.512 83.3 14.1 91 9.6
2010-05-11 09:22:20 51°27.106 3°13.854 92.3 11.6 100 9.7
2010-05-11 09:23:20 51°27.022 3°14.023 137.1 6.1 137 9.6
2010-05-11 09:24:20 51°26.977 3°14.092 145.8 2 144 10
2010-05-11 09:25:20 51°26.953 3°14.117 150.5 1.7 153 9.8
2010-05-11 09:26:20 51°26.929 3°14.141 139.5 1.7 144 9.6
2010-05-11 09:27:20 51°26.907 3°14.166 132.9 1.7 145 9.7
2010-05-11 09:28:20 51°26.885 3°14.19 129.1 1.6 155 9.6
2010-05-11 09:29:20 51°26.863 3°14.213 130.2 1.6 154 9.6
2010-05-11 09:30:20 51°26.841 3°14.235 132.9 1.6 152 9.8
2010-05-11 09:31:20 51°26.819 3°14.256 135.1 1.6 150 9.6
2010-05-11 09:32:20 51°26.792 3°14.306 107.5 3.4 117 9.6
2010-05-11 09:33:20 51°26.785 3°14.398 61.1 3.5 78 9.6
2010-05-11 09:34:20 51°26.816 3°14.451 353.2 2.6 2 9.4
2010-05-11 09:35:20 51°26.831 3°14.378 274.7 4.4 260 9.5
2010-05-11 09:36:20 51°26.827 3°14.27 279.9 3.7 267 10
2010-05-11 09:37:20 51°26.83 3°14.183 290.3 3.1 277 10.4
2010-05-11 09:38:20 51°26.853 3°14.119 313.9 2.6 309 9.6
2010-05-11 09:39:20 51°26.885 3°14.075 323.2 2.7 327 9.8
2010-05-11 09:40:20 51°26.927 3°14.034 326.7 3 330 10.3
2010-05-11 09:41:20 51°26.973 3°14.002 332.3 2.8 336 9.9
2010-05-11 09:42:20 51°27.015 3°13.962 324.8 2.9 330 9.8
2010-05-11 09:43:20 51°27.054 3°13.916 317.8 2.9 316 9.9
2010-05-11 09:44:20 51°27.086 3°13.856 308.6 2.8 306 10
2010-05-11 09:45:20 51°27.117 3°13.793 308.8 3 310 10.1
2010-05-11 09:46:20 51°27.147 3°13.728 308.7 3.1 305 10.6
2010-05-11 09:47:20 51°27.177 3°13.664 309.2 3.2 303 10.7
2010-05-11 09:48:20 51°27.207 3°13.598 309.7 3 308 10
2010-05-11 09:49:20 51°27.237 3°13.536 308.6 2.7 305 10.2
2010-05-11 09:50:20 51°27.265 3°13.479 310 2.8 306 10.7
2010-05-11 09:51:20 51°27.293 3°13.42 309.1 2.6 307 10.5
2010-05-11 09:52:20 51°27.323 3°13.362 311.4 3 306 10.8
2010-05-11 09:53:20 51°27.355 3°13.303 312 3 313 10.6
2010-05-11 09:54:20 51°27.387 3°13.241 308.6 2.9 306 10.9
2010-05-11 09:55:20 51°27.419 3°13.181 311.2 2.9 308 10.5
2010-05-11 09:56:20 51°27.452 3°13.12 309.5 2.9 311 10.6
2010-05-11 09:57:20 51°27.484 3°13.058 309.7 2.8 307 10.6
2010-05-11 09:58:20 51°27.516 3°12.997 311.1 3.1 314 10.6
2010-05-11 09:59:20 51°27.551 3°12.936 310 3.2 308 11.4
2010-05-11 10:00:20 51°27.586 3°12.874 310.1 3.2 311 11.1
2010-05-11 10:01:21 51°27.621 3°12.81 310 3.1 309 10.6
2010-05-11 10:02:20 51°27.654 3°12.747 310.2 3.2 311 11.1
2010-05-11 10:03:20 51°27.688 3°12.684 311.4 3.1 313 10.7
2010-05-11 10:04:20 51°27.72 3°12.621 309.9 2.9 308 11.2
2010-05-11 10:05:20 51°27.753 3°12.56 310.7 3.1 312 11.7
2010-05-11 10:06:20 51°27.787 3°12.501 310.4 3 313 11.1
2010-05-11 10:07:20 51°27.821 3°12.439 309.9 3.3 311 11.4
2010-05-11 10:08:20 51°27.855 3°12.376 310.3 3.1 304 11.7
2010-05-11 10:09:20 51°27.88 3°12.303 295.7 3.2 297 11.2
2010-05-11 10:10:20 51°27.893 3°12.219 285 3.4 279 11.7
2010-05-11 10:11:20 51°27.893 3°12.127 271.1 3.5 263 11.2
2010-05-11 10:12:21 51°27.871 3°12.036 255.3 3.8 239 12
2010-05-11 10:13:38 51°27.834 3°11.922 253.8 3.9 237 11.9
2010-05-11 10:14:38 51°27.826 3°11.831 278.7 3.4 279 11.7
2010-05-11 10:15:38 51°27.84 3°11.745 293.6 3.2 293 11.6
2010-05-11 10:16:38 51°27.869 3°11.677 309.1 3.2 314 11.9
2010-05-11 10:17:38 51°27.91 3°11.627 323.2 3.2 327 11.6
2010-05-11 10:18:38 51°27.96 3°11.609 348.9 3.3 358 12.4
2010-05-11 10:19:38 51°28.017 3°11.623 4.4 3 19 12.4
2010-05-11 10:20:38 51°28.047 3°11.641 3.9 1.4 26 12.3
2010-05-11 10:21:38 51°28.059 3°11.653 357.9 0.4 50 12
2010-05-11 10:22:38 51°28.055 3°11.658 336.9 0.5 160 12.5
2010-05-11 10:23:38 51°28.062 3°11.645 316.1 2.6 320 12.6
2010-05-11 10:24:38 51°28.136 3°11.54 315.5 8.3 317 12.3
2010-05-11 10:25:38 51°28.245 3°11.355 310.8 10.5 312 12.9
2010-05-11 10:26:38 51°28.376 3°11.117 311.2 12.4 313 13.6
2010-05-11 10:27:38 51°28.512 3°10.869 310.8 12.5 311 13.7
2010-05-11 10:28:38 51°28.65 3°10.618 311 12.5 313 14.9
2010-05-11 10:29:38 51°28.789 3°10.368 310.8 12.5 312 15.6
2010-05-11 10:30:38 51°28.929 3°10.115 311.1 12.9 313 16.7
2010-05-11 10:31:38 51°29.07 3°9.86 311.5 12.6 313 17.8
2010-05-11 10:32:38 51°29.211 3°9.606 312 12.7 311 17.7
2010-05-11 10:33:38 51°29.353 3°9.354 310.7 12.8 311 18.7
2010-05-11 10:34:38 51°29.494 3°9.102 309.5 12.8 308 19.3
2010-05-11 10:35:38 51°29.637 3°8.85 311.9 12.5 314 18.6
2010-05-11 10:36:38 51°29.78 3°8.604 311.3 12.7 310 19.8
2010-05-11 10:37:38 51°29.924 3°8.357 311.5 12.6 315 19.8
2010-05-11 10:38:38 51°30.069 3°8.112 310.5 12.8 314 20.8
2010-05-11 10:39:38 51°30.214 3°7.865 312.2 12.7 314 22.2
2010-05-11 10:40:38 51°30.362 3°7.617 311.3 13 315 24.7
2010-05-11 10:41:38 51°30.508 3°7.365 310.1 12.7 311 26.5
2010-05-11 10:42:38 51°30.654 3°7.116 311.5 12.8 313 27.8
2010-05-11 10:43:38 51°30.8 3°6.865 311 13 315 26.1
2010-05-11 10:44:38 51°30.948 3°6.617 311.2 12.6 314 25.8
2010-05-11 10:45:38 51°31.092 3°6.366 310.7 12.8 310 25.4
2010-05-11 10:46:38 51°31.238 3°6.117 311.3 12.7 314 27.7
2010-05-11 10:47:38 51°31.387 3°5.867 310.8 13 314 28.6
2010-05-11 10:48:38 51°31.538 3°5.616 311.7 13.1 317 30.3
2010-05-11 10:49:38 51°31.689 3°5.362 312.2 13 315 30.1
2010-05-11 10:50:38 51°31.841 3°5.113 312.2 13.1 316 31.9
2010-05-11 10:51:38 51°31.993 3°4.86 312 13.2 315 29.7
2010-05-11 10:52:38 51°32.146 3°4.608 311.7 13 313 30.8
2010-05-11 10:53:38 51°32.307 3°4.372 317.5 13 318 31.2
2010-05-11 10:54:38 51°32.485 3°4.165 322.2 13.4 323 33.5
2010-05-11 10:55:38 51°32.664 3°3.961 321.8 13.2 326 33.1
2010-05-11 10:56:38 51°32.834 3°3.753 321.2 12.7 322 29.4
2010-05-11 10:57:38 51°33.007 3°3.546 320.2 13 322 24.2
2010-05-11 10:58:38 51°33.178 3°3.335 320.4 13 322 22.7
2010-05-11 10:59:38 51°33.35 3°3.129 320.2 13 321 24.1
2010-05-11 11:00:38 51°33.523 3°2.922 320.2 13 324 25.6
2010-05-11 11:01:38 51°33.698 3°2.716 319.6 13.1 324 31.8
2010-05-11 11:02:38 51°33.874 3°2.508 320.7 13.2 325 36
2010-05-11 11:03:38 51°34.052 3°2.295 320.2 13.4 323 35.3
2010-05-11 11:04:38 51°34.23 3°2.075 319.6 13.5 321 26.9
2010-05-11 11:05:38 51°34.403 3°1.852 320.5 13.3 322 24
2010-05-11 11:06:38 51°34.539 3°1.686 322.3 7.6 324 21.7
2010-05-11 11:07:38 51°34.592 3°1.583 271.7 3.7 269 4.4
2010-05-11 11:08:38 51°34.564 3°1.525 212.1 2.4 209 20.1
2010-05-11 11:09:38 51°34.524 3°1.488 219.2 3.1 221 19.9
2010-05-11 11:10:38 51°34.486 3°1.406 241.7 4.1 244 20.1
2010-05-11 11:11:38 51°34.47 3°1.306 265 3.4 261 18.3
2010-05-11 11:12:38 51°34.481 3°1.223 285.6 3.1 287 17.5
2010-05-11 11:13:38 51°34.511 3°1.152 301.4 3.5 310 17.6
2010-05-11 11:14:43 51°34.556 3°1.078 311.8 3.8 317 17.6
2010-05-11 11:16:10 51°34.625 3°0.995 314.4 3.5 321 17.5
2010-05-11 11:17:11 51°34.673 3°0.934 310.1 3.7 312 20.4
2010-05-11 11:18:11 51°34.713 3°0.858 300.4 3.9 308 21.7
2010-05-11 11:19:10 51°34.751 3°0.78 298.2 3.8 307 21.9
2010-05-11 11:20:11 51°34.789 3°0.701 299.1 3.5 306 20.2
2010-05-11 11:21:11 51°34.822 3°0.629 296.8 3.3 303 23.2
2010-05-11 11:22:11 51°34.857 3°0.556 301 3.4 304 25.1
2010-05-11 11:23:10 51°34.887 3°0.48 291.8 3.5 295 26.9
2010-05-11 11:24:11 51°34.911 3°0.395 283.8 3.4 288 26.1
2010-05-11 11:25:11 51°34.919 3°0.309 265.3 3.2 269 27.5
2010-05-11 11:26:10 51°34.913 3°0.224 255.9 3.3 264 25
2010-05-11 11:27:11 51°34.903 3°0.137 254.8 3.2 259 28.8
2010-05-11 11:28:11 51°34.893 3°0.051 257.7 3.4 265 27.6
2010-05-11 11:29:11 51°34.899 2°59.962 276.6 3.6 290 28.7
2010-05-11 11:30:10 51°34.917 2°59.877 282.4 3.6 292 28.7
2010-05-11 11:31:11 51°34.94 2°59.789 283.3 3.5 289 26.5
2010-05-11 11:32:11 51°34.959 2°59.705 277.8 3.3 285 30.1
2010-05-11 11:33:10 51°34.969 2°59.62 269.3 3.4 279 31.1
2010-05-11 11:34:11 51°34.976 2°59.529 267.7 3.4 274 32.3
2010-05-11 11:35:11 51°34.981 2°59.439 268.6 3.4 276 31.4
2010-05-11 11:36:11 51°34.986 2°59.351 267.6 3.3 275 31.8
2010-05-11 11:37:10 51°34.991 2°59.263 267.5 3.4 276 28.5
2010-05-11 11:38:11 51°34.994 2°59.173 259.5 3.4 268 28.7
2010-05-11 11:39:11 51°34.988 2°59.085 257.7 3.3 265 31.8
2010-05-11 11:40:10 51°34.98 2°59.002 249.9 3.1 258 32.2
2010-05-11 11:41:10 51°34.964 2°58.919 247.2 3.3 244 32.2
2010-05-11 11:42:11 51°34.945 2°58.833 247.1 3.4 254 31.9
2010-05-11 11:43:11 51°34.927 2°58.75 248.3 3.3 246 32.1
2010-05-11 11:44:10 51°34.904 2°58.672 239 3.3 235 32.1
2010-05-11 11:45:11 51°34.875 2°58.595 237 3.4 238 30.3
2010-05-11 11:46:11 51°34.838 2°58.53 221.7 3.3 219 31.6
2010-05-11 11:47:11 51°34.791 2°58.486 214.8 3.4 214 30.7
2010-05-11 11:48:10 51°34.744 2°58.442 217.4 3.3 216 29.8
2010-05-11 11:49:11 51°34.698 2°58.398 217.3 3.2 210 28.4
2010-05-11 11:50:11 51°34.655 2°58.346 226.7 3.2 227 29.8
2010-05-11 11:51:11 51°34.627 2°58.275 245.4 3.2 258 31.1
2010-05-11 11:52:11 51°34.621 2°58.192 263.1 3.2 267 32.6
2010-05-11 11:53:11 51°34.626 2°58.104 269.8 3.4 277 32.2
2010-05-11 11:54:11 51°34.648 2°58.02 290.4 3.5 308 31.3
2010-05-11 11:55:11 51°34.68 2°57.949 301.3 3.2 313 31.5
2010-05-11 11:56:11 51°34.72 2°57.891 310.8 3.4 322 33.2
2010-05-11 11:57:11 51°34.771 2°57.839 323 3.6 334 32.9
2010-05-11 11:58:11 51°34.824 2°57.803 332.3 3.4 341 34.4
2010-05-11 11:59:10 51°34.872 2°57.776 331.9 3.1 344 34.9
2010-05-11 12:00:11 51°34.925 2°57.753 336.9 3.4 345 35.4
2010-05-11 12:01:11 51°34.981 2°57.725 331.2 3.1 342 35.6
2010-05-11 12:02:11 51°35.015 2°57.712 328.3 1.4 5 34.8
2010-05-11 12:03:11 51°35.031 2°57.712 324.7 0.7 1 33.3
2010-05-11 12:04:11 51°35.04 2°57.714 320 1.2 339 34.1
2010-05-11 12:05:11 51°35.097 2°57.716 15.2 4.3 24 33.6
2010-05-11 12:06:11 51°35.139 2°57.862 88.9 9.2 94 35.4
2010-05-11 12:07:11 51°35.082 2°58.16 116 12.7 116 31.2
2010-05-11 12:08:11 51°35.004 2°58.494 111.5 13.7 101 31.7
2010-05-11 12:09:11 51°34.934 2°58.833 112.3 13.5 103 31.5
2010-05-11 12:10:11 51°34.861 2°59.173 110.2 13.2 108 30.1
2010-05-11 12:11:11 51°34.792 2°59.514 110.4 13.7 104 28.1
2010-05-11 12:12:11 51°34.718 2°59.848 114.1 13 119 27.4
2010-05-11 12:13:11 51°34.664 3°0.174 103.7 10.3 100 22.1
2010-05-11 12:14:11 51°34.665 3°0.336 81.1 3.2 84 23.5
2010-05-11 12:15:11 51°34.67 3°0.372 81.6 0.6 45 22.8
2010-05-11 12:16:11 51°34.671 3°0.377 113.3 0.3 56 21.9
2010-05-11 12:17:21 51°34.673 3°0.381 137.3 0.2 52 21.7
2010-05-11 12:18:21 51°34.674 3°0.387 141.6 0.4 56 21.5
2010-05-11 12:19:21 51°34.676 3°0.395 136.7 0.4 79 20.2
2010-05-11 12:20:21 51°34.678 3°0.409 123.2 0.6 71 20.8
2010-05-11 12:21:21 51°34.679 3°0.42 124 0.4 83 22.2
2010-05-11 12:22:21 51°34.68 3°0.43 123.2 0.5 80 22.4
2010-05-11 12:23:21 51°34.671 3°0.464 121.8 2.7 107 22
2010-05-11 12:24:21 51°34.633 3°0.548 154.5 4.7 157 21.7
2010-05-11 12:25:21 51°34.533 3°0.519 198.4 8.1 201 20.1
2010-05-11 12:26:21 51°34.381 3°0.434 199.7 10.9 203 18
2010-05-11 12:27:21 51°34.19 3°0.322 198.2 14.1 204 18.1
2010-05-11 12:28:21 51°33.996 3°0.202 198.4 12.5 201 15.1
2010-05-11 12:29:21 51°33.805 3°0.082 200.5 12.7 202 15.1
2010-05-11 12:30:21 51°33.614 2°59.961 200.6 12.4 202 13
2010-05-11 12:31:21 51°33.429 2°59.838 201.1 11.3 196 14
2010-05-11 12:32:21 51°33.242 2°59.713 205 12.3 214 18.2
2010-05-11 12:33:21 51°33.065 2°59.558 210 12.2 212 26.5
2010-05-11 12:34:21 51°32.886 2°59.396 211.3 11.9 201 32.2
2010-05-11 12:35:21 51°32.708 2°59.243 208.8 12.2 214 33.9
2010-05-11 12:36:21 51°32.528 2°59.09 209 12.4 207 36.2
2010-05-11 12:37:21 51°32.346 2°58.94 209.6 12.2 202 36.1
2010-05-11 12:38:21 51°32.167 2°58.79 206.9 11.8 212 37.3
2010-05-11 12:39:21 51°31.986 2°58.648 204 12.4 208 39.5
2010-05-11 12:40:21 51°31.808 2°58.501 209.3 12.8 205 36.3
2010-05-11 12:41:21 51°31.625 2°58.358 208.8 11.9 210 32.9
2010-05-11 12:42:21 51°31.44 2°58.21 210.1 12.3 209 31.9
2010-05-11 12:43:21 51°31.256 2°58.061 208.4 12.1 208 31.6
2010-05-11 12:44:21 51°31.068 2°57.925 199.5 11.9 200 31.6
2010-05-11 12:45:21 51°30.87 2°57.838 197.5 11.9 196 31.3
2010-05-11 12:46:21 51°30.667 2°57.767 193.6 12.6 192 29.8
2010-05-11 12:47:21 51°30.472 2°57.648 207.4 12.7 209 30
2010-05-11 12:48:21 51°30.3 2°57.439 222.6 12.7 228 29.3
2010-05-11 12:49:21 51°30.139 2°57.237 220.6 11.9 209 28.7
2010-05-11 12:50:21 51°29.975 2°57.031 217 13.5 217 29.6
2010-05-11 12:51:21 51°29.819 2°56.806 226.1 12.3 229 29.1
2010-05-11 12:52:21 51°29.669 2°56.577 224.1 12.9 221 29.9
2010-05-11 12:53:21 51°29.521 2°56.339 222.7 12.3 227 27.8
2010-05-11 12:54:21 51°29.372 2°56.101 224.3 12.5 221 26.9
2010-05-11 12:55:21 51°29.224 2°55.861 224 12.6 231 27
2010-05-11 12:56:21 51°29.073 2°55.632 222.2 12.5 227 25.5
2010-05-11 12:57:21 51°28.925 2°55.389 226.5 12.6 227 24.9
2010-05-11 12:58:21 51°28.775 2°55.155 222.7 13.5 233 25.1
2010-05-11 12:59:22 51°28.623 2°54.912 222.2 12.4 222 24.1
2010-05-11 13:00:21 51°28.475 2°54.686 221.8 13 228 22.6
2010-05-11 13:01:21 51°28.33 2°54.447 224.8 12.3 225 21.6
2010-05-11 13:02:21 51°28.176 2°54.222 221.8 12.6 221 22.8
2010-05-11 13:03:21 51°28.03 2°53.988 222.8 12.4 229 23.3
2010-05-11 13:04:21 51°27.888 2°53.752 223.3 12.3 226 23
2010-05-11 13:05:21 51°27.747 2°53.512 226.5 12.4 231 22.5
2010-05-11 13:06:21 51°27.606 2°53.263 226.7 12.5 232 21.3
2010-05-11 13:07:21 51°27.465 2°53.019 225.8 12.3 228 20.7
2010-05-11 13:08:21 51°27.322 2°52.77 225.5 13 232 22.1
2010-05-11 13:09:21 51°27.181 2°52.519 227.3 12.5 224 23.9
2010-05-11 13:10:21 51°27.042 2°52.266 230.4 12.7 241 23.8
2010-05-11 13:11:21 51°26.902 2°52.029 227.4 12.7 229 27.2
2010-05-11 13:12:21 51°26.756 2°51.786 223.3 12.8 227 26.9
2010-05-11 13:13:21 51°26.612 2°51.542 227.1 12.5 226 26.8
2010-05-11 13:14:21 51°26.469 2°51.297 224.7 12.4 220 28.2
2010-05-11 13:15:21 51°26.318 2°51.062 222.8 12.9 219 24.4
2010-05-11 13:16:21 51°26.165 2°50.839 220.9 12.9 221 24.8
2010-05-11 13:17:23 51°26.006 2°50.607 223.1 13.4 230 24.8
2010-05-11 13:18:56 51°25.755 2°50.288 217 12.4 217 24.9
2010-05-11 13:19:57 51°25.587 2°50.086 219.1 13.2 214 24.1
2010-05-11 13:20:57 51°25.423 2°49.877 219.2 12.5 227 24.1
2010-05-11 13:21:57 51°25.258 2°49.673 220.3 13 223 23.8
2010-05-11 13:22:57 51°25.098 2°49.458 220.5 11.9 237 23.4
2010-05-11 13:23:57 51°24.964 2°49.319 204.3 7.1 203 24.1
2010-05-11 13:24:57 51°24.881 2°49.268 200.1 4.4 194 23.7
2010-05-11 13:25:57 51°24.822 2°49.232 201.6 3.4 200 23.7
2010-05-11 13:26:57 51°24.768 2°49.196 204.1 3.9 202 23.3
2010-05-11 13:27:57 51°24.72 2°49.127 240.4 3.7 241 23.6
2010-05-11 13:28:57 51°24.709 2°49.03 272.3 3.6 267 24.1
2010-05-11 13:29:57 51°24.724 2°48.937 292.2 3.7 286 23.4
2010-05-11 13:30:57 51°24.748 2°48.849 298.4 3.7 295 23.5
2010-05-11 13:31:57 51°24.781 2°48.763 305.7 3.7 303 23.8
2010-05-11 13:32:57 51°24.815 2°48.684 312.9 3.4 307 23.4
2010-05-11 13:33:57 51°24.854 2°48.609 309 3.8 306 25.5
2010-05-11 13:34:57 51°24.89 2°48.526 301.8 3.9 299 26.2
2010-05-11 13:35:57 51°24.922 2°48.434 297.7 4 295 26.6
2010-05-11 13:36:57 51°24.948 2°48.34 293 3.9 289 29
2010-05-11 13:37:57 51°24.964 2°48.241 281.5 3.9 281 29.5
2010-05-11 13:38:57 51°24.971 2°48.142 273.2 3.7 273 30.3
2010-05-11 13:39:57 51°24.968 2°48.044 265.8 3.8 260 30.7
2010-05-11 13:40:57 51°24.96 2°47.945 260 3.8 259 29.8
2010-05-11 13:41:57 51°24.946 2°47.844 254.1 3.8 256 29.7
2010-05-11 13:42:57 51°24.927 2°47.744 250.9 3.9 249 30.5
2010-05-11 13:43:57 51°24.907 2°47.646 253 3.8 252 31.9
2010-05-11 13:44:57 51°24.892 2°47.545 253.2 4 256 31.9
2010-05-11 13:45:57 51°24.868 2°47.449 245.5 3.8 239 32.4
2010-05-11 13:46:57 51°24.836 2°47.358 233.9 4 235 31.3
2010-05-11 13:47:57 51°24.792 2°47.276 222.3 4 225 31
2010-05-11 13:48:57 51°24.744 2°47.198 224.9 4.3 227 30.7
2010-05-11 13:49:57 51°24.698 2°47.115 227.3 4.2 228 31.2
2010-05-11 13:50:57 51°24.652 2°47.032 226.6 4.1 231 31.3
2010-05-11 13:51:57 51°24.607 2°46.948 226.9 4.3 225 32.2
2010-05-11 13:52:57 51°24.561 2°46.87 224.5 4 228 31
2010-05-11 13:53:57 51°24.517 2°46.793 225.9 3.8 229 30.4
2010-05-11 13:54:57 51°24.473 2°46.713 225.2 4 227 31.2
2010-05-11 13:55:57 51°24.427 2°46.633 226.3 4.2 223 30.1
2010-05-11 13:56:57 51°24.382 2°46.55 225.7 4.1 227 27.4
2010-05-11 13:57:57 51°24.335 2°46.47 224.7 4 226 27.8
2010-05-11 13:58:57 51°24.289 2°46.391 226.1 4.2 230 28.8
2010-05-11 13:59:57 51°24.242 2°46.312 224.5 4.1 224 31.2
2010-05-11 14:00:57 51°24.194 2°46.231 225.3 4.2 229 27.1
2010-05-11 14:01:57 51°24.145 2°46.149 225.8 4.3 229 29.3
2010-05-11 14:02:57 51°24.096 2°46.067 224 4.1 224 31
2010-05-11 14:03:57 51°24.049 2°45.988 226.1 4.2 230 28.3
2010-05-11 14:04:57 51°24.001 2°45.909 223.8 4.3 225 28.3
2010-05-11 14:05:57 51°23.965 2°45.814 254.4 4 251 28
2010-05-11 14:06:57 51°23.952 2°45.711 264.3 3.9 264 27.3
2010-05-11 14:07:57 51°23.95 2°45.609 277.9 3.7 272 28.1
2010-05-11 14:08:57 51°23.96 2°45.511 288.5 3.8 278 28.9
2010-05-11 14:09:57 51°23.98 2°45.422 302 3.4 297 27.3
2010-05-11 14:10:57 51°24.008 2°45.341 313.4 3.5 302 27.6
2010-05-11 14:11:57 51°24.041 2°45.271 321 3.4 310 27.7
2010-05-11 14:12:57 51°24.071 2°45.21 323.4 2.9 319 26.5
2010-05-11 14:13:57 51°24.109 2°45.159 340.3 2.6 324 26.6
2010-05-11 14:14:57 51°24.12 2°45.126 332 1.2 277 27.4
2010-05-11 14:15:57 51°24.119 2°45.097 322.8 1.4 269 27.9
2010-05-11 14:16:57 51°24.142 2°45.059 351.4 3.4 344 26.7
2010-05-11 14:17:57 51°24.2 2°45.153 72.6 8.4 77 27.3
2010-05-11 14:18:57 51°24.255 2°45.439 70.2 12.8 70 26.2
2010-05-11 14:20:14 51°24.352 2°45.844 69.7 12.7 68 26.9
2010-05-11 14:21:14 51°24.431 2°46.161 69 13 67 27.2
2010-05-11 14:22:14 51°24.509 2°46.478 70.2 12.7 67 28.2
2010-05-11 14:23:14 51°24.583 2°46.788 70.5 12.6 68 31.2
2010-05-11 14:24:14 51°24.656 2°47.097 71.4 12.4 71 31.3
2010-05-11 14:25:14 51°24.731 2°47.405 70 12.6 71 32.2
2010-05-11 14:26:14 51°24.805 2°47.718 70.2 12.7 71 30.8
2010-05-11 14:27:14 51°24.879 2°48.032 70.4 12.4 71 28.4
2010-05-11 14:28:14 51°24.946 2°48.312 67.3 7.9 65 27.4
2010-05-11 14:29:14 51°24.974 2°48.407 59 1 68 27.3
2010-05-11 14:30:14 51°24.966 2°48.411 67.5 0.7 195 26.5
2010-05-11 14:31:14 51°24.95 2°48.397 100.4 1.2 210 27.4
2010-05-11 14:32:14 51°24.937 2°48.379 124.9 0.9 220 27.7
2010-05-11 14:33:14 51°24.924 2°48.36 131.7 1 229 27.5
2010-05-11 14:34:14 51°24.909 2°48.342 127.7 1.2 217 26.8
2010-05-11 14:35:14 51°24.896 2°48.322 124.1 0.9 223 25.9
2010-05-11 14:36:14 51°24.883 2°48.299 124.4 1.1 235 26.1
2010-05-11 14:37:14 51°24.87 2°48.274 128.5 1.4 216 27.6
2010-05-11 14:38:14 51°24.834 2°48.293 141.4 5.2 154 26.8
2010-05-11 14:39:14 51°24.705 2°48.326 166 9.7 169 24.1
2010-05-11 14:40:14 51°24.513 2°48.4 164.8 14.3 169 23.7
2010-05-11 14:41:14 51°24.308 2°48.494 164.5 13.3 170 20.2
2010-05-11 14:42:14 51°24.097 2°48.583 162.7 13.6 162 23.1
2010-05-11 14:43:14 51°23.885 2°48.651 167.2 13.3 168 23.3
2010-05-11 14:44:14 51°23.674 2°48.72 167.5 13 171 22.6
2010-05-11 14:45:14 51°23.459 2°48.794 162.9 13 163 22.7
2010-05-11 14:46:14 51°23.246 2°48.867 165.8 13.6 167 20.8
2010-05-11 14:47:14 51°23.024 2°48.88 184.5 13.1 186 18.7
2010-05-11 14:48:14 51°22.824 2°48.715 214.8 13.8 215 16.6
2010-05-11 14:49:14 51°22.665 2°48.459 226.8 13.8 226 17.1
2010-05-11 14:50:14 51°22.512 2°48.183 224.1 13.8 225 16.7
2010-05-11 14:51:14 51°22.355 2°47.923 223 13.7 226 18.8
2010-05-11 14:52:14 51°22.159 2°47.748 194.9 14.1 197 23.5
2010-05-11 14:53:14 51°21.934 2°47.735 175.2 13.8 180 24.2
2010-05-11 14:54:14 51°21.721 2°47.798 162.6 13.1 168 24.4
2010-05-11 14:55:14 51°21.511 2°47.892 157 12.7 164 22.9
2010-05-11 14:56:14 51°21.299 2°47.985 159.3 13.3 170 20.9
2010-05-11 14:57:14 51°21.087 2°48.065 167.7 13.1 169 20.5
2010-05-11 14:58:14 51°20.902 2°48.229 142 12.8 155 20.1
2010-05-11 14:59:14 51°20.736 2°48.446 136.2 12.9 131 20.7
2010-05-11 15:00:14 51°20.571 2°48.664 136.3 12.5 132 22.6
2010-05-11 15:01:14 51°20.405 2°48.879 137.1 12.9 131 22.3
2010-05-11 15:02:14 51°20.232 2°49.086 141.2 13.2 149 21.6
2010-05-11 15:03:14 51°20.056 2°49.293 137.8 12.9 147 19.6
2010-05-11 15:04:14 51°19.878 2°49.487 143 12.7 140 17.1
2010-05-11 15:05:14 51°19.702 2°49.683 140.2 12.6 140 15.2
2010-05-11 15:06:14 51°19.53 2°49.88 141.8 12.2 139 13
2010-05-11 15:07:14 51°19.356 2°50.075 140.4 12.7 142 11.2
2010-05-11 15:08:14 51°19.179 2°50.255 143.9 12.6 154 12.2
2010-05-11 15:09:14 51°19.003 2°50.448 145.4 13.1 140 14.2
2010-05-11 15:10:14 51°18.832 2°50.651 141.5 13.1 151 14.3
2010-05-11 15:11:14 51°18.656 2°50.859 142 13.2 143 13.9
2010-05-11 15:12:14 51°18.477 2°51.049 143.8 12.5 140 13.3
2010-05-11 15:13:14 51°18.285 2°51.212 148.2 13.4 154 12.7
2010-05-11 15:14:14 51°18.091 2°51.365 150.1 12.7 155 11.6
2010-05-11 15:15:14 51°17.9 2°51.515 149.9 13.7 160 10.2
2010-05-11 15:16:14 51°17.712 2°51.683 146 13.7 153 9.7
2010-05-11 15:17:14 51°17.528 2°51.866 140.7 13.1 154 10.2
2010-05-11 15:18:14 51°17.342 2°52.045 150 13.4 153 10.9
2010-05-11 15:19:14 51°17.144 2°52.208 148.3 13.8 150 10.7
2010-05-11 15:20:14 51°16.948 2°52.359 150 13.6 157 9.1
2010-05-11 15:21:52 51°16.623 2°52.609 148.4 13.8 156 10.8
2010-05-11 15:23:13 51°16.367 2°52.839 141.6 12.9 155 11.3
2010-05-11 15:24:13 51°16.184 2°53.021 137.3 12.6 145 11.7
2010-05-11 15:25:13 51°15.999 2°53.2 137.8 12.3 149 11.1
2010-05-11 15:26:13 51°15.81 2°53.374 141.2 13 158 10.6
2010-05-11 15:27:13 51°15.629 2°53.562 135.7 13.2 142 10.7
2010-05-11 15:28:13 51°15.487 2°53.778 126.4 9.1 131 9.8
2010-05-11 15:29:13 51°15.461 2°53.903 74.9 3 86 10.6
2010-05-11 15:30:13 51°15.479 2°53.971 48.4 3.4 52 10.5
2010-05-11 15:31:13 51°15.532 2°54.002 17.7 3 3 10
2010-05-11 15:32:13 51°15.606 2°54.038 32 4.1 23 9.8
2010-05-11 15:33:13 51°15.64 2°54.065 38 1.3 19 10
2010-05-11 15:34:13 51°15.647 2°54.07 43.6 0.2 277 9.9
2010-05-11 15:35:13 51°15.64 2°54.067 52.8 0.6 202 9.9
2010-05-11 15:36:13 51°15.627 2°54.06 60.3 1 193 10
2010-05-11 15:37:13 51°15.611 2°54.053 67.2 1.2 199 9.5
2010-05-11 15:38:13 51°15.594 2°54.051 70.7 1 169 10.1
2010-05-11 15:39:13 51°15.582 2°54.059 64.7 0.5 148 9.5
2010-05-11 15:40:13 51°15.575 2°54.07 55.1 0.6 115 10.2
2010-05-11 15:41:13 51°15.573 2°54.079 46.5 0.5 154 9.6
2010-05-11 15:42:13 51°15.571 2°54.083 41.8 0.2 143 9.7
2010-05-11 15:43:13 51°15.572 2°54.082 33.8 0.4 275 9.6
2010-05-11 15:44:13 51°15.577 2°54.067 16.5 1 295 9.9
2010-05-11 15:45:13 51°15.586 2°54.029 355.1 1.9 285 9.9
2010-05-11 15:46:13 51°15.596 2°53.972 348.8 2.3 285 9.9
2010-05-11 15:47:13 51°15.609 2°53.922 3.2 1.9 295 10
2010-05-11 15:48:13 51°15.62 2°53.883 16.2 1.3 286 9.9
2010-05-11 15:49:13 51°15.62 2°53.866 43.9 0.6 228 10.4
2010-05-11 15:50:13 51°15.603 2°53.903 107.8 5 135 10.2
2010-05-11 15:51:13 51°15.515 2°54.076 122.3 10.5 136 9.9
2010-05-11 15:52:13 51°15.363 2°54.26 133.6 12.5 144 8.5
2010-05-11 15:53:13 51°15.19 2°54.452 125.6 11.7 129 8.2
2010-05-11 15:54:13 51°15.004 2°54.619 142.5 12.6 160 8
2010-05-11 15:55:12 51°14.791 2°54.747 147.5 14 158 10.2
2010-05-11 15:56:13 51°14.587 2°54.907 141.1 13 151 10.3
2010-05-11 15:57:13 51°14.415 2°55.109 137.6 13.2 142 9.5
2010-05-11 15:58:13 51°14.247 2°55.298 145.7 11.5 147 9.7
2010-05-11 15:59:13 51°14.113 2°55.432 152.3 8.1 155 9.9
2010-05-11 16:00:13 51°14.001 2°55.512 158.3 6.9 157 10
2010-05-11 16:01:13 51°13.894 2°55.58 158.2 7 158 9.9
2010-05-11 16:02:13 51°13.795 2°55.661 145.5 6 143 10.3
2010-05-11 16:03:13 51°13.732 2°55.761 127.5 5 129 10.7
2010-05-11 16:04:13 51°13.686 2°55.866 118.4 4.5 119 7.5
2010-05-11 16:05:13 51°13.665 2°55.95 112.2 2.1 114 5.3
2010-05-11 16:06:13 51°13.662 2°55.96 126.4 0.1 68 5.1